Terminal Aerodrome Forecast
Issued by NWS

Home | Current Version | Previous Version | Text Only | Print | Product List | Glossary On
Versions: 1 2 3 4 5 6 7 8 9 10 11 12 13 14 15
000
FTUS44 KCRP 260536
TAFLRD
TAF
KLRD 260536Z 2606/2706 11012KT P6SM SKC
     FM261200 14008KT 6SM BR SCT008
     FM261600 16011KT P6SM SCT022
     FM270500 14015KT P6SM SKC=

USA.gov is the U.S. government's official web portal to all federal, state and local government web resources and services.